Pagina principale
METAR-TAF:

METAR-TAF

Aeroporti :

Aeroporto di Bergamo-Orio al Serio

Bergamo, Italia

latitudine: 45-40N, longitudine: 009-42E, altezza: 238 m

Osservazione

Il bollettino è stato emesso 25 minuti fa, alle 10:20 UTC
Vento 2 kt da direzioni variabili
Temperature 19°C
Umidità 60%
Pressione 1019 hPa
Visibilità: 9000 m
Nubi sparse ad un'altezza di 8000 ft

METAR: LIME 151020Z VRB02KT 9000 SCT080 19/11 Q1019 NOSIG

Ora: 12:45 (10:45 UTC)

Previsione

Il bollettino è stato emesso 5 ore e 45 minuti fa, alle 05:00 UTC
Previsione valida dal 15 alle 06 UTC al 16 alle 06 UTC
Vento 5 kt da direzioni variabili
Visibilità 10 km o più
Nubi sparse ad un'altezza di 6000 ft
Probabilità 40% :
Temporaneamente
dal 15 alle 16 UTC al 15 alle 20 UTC
Visibilità: 4000 m
rovesci di pioggia

TAF: LIME 150500Z 1506/1606 VRB05KT 9999 SCT060 PROB40 TEMPO 1516/1520 4000 SHRA

Osservazioni e previsioni meteorologiche di più di 4000 aeroporti (messaggi METAR e TAF).

Le stazioni disponibili sono rappresentate dai dischi gialli e rossi sulla carta.

Puntare il mouse per vedere il nome della stazione.

Clicca sopra per visualizzare le osservazioni e previsioni meteorologiche.

Per cambiare la mappa : fare clic sui pulsanti verdi con una croce nera per ingrandire, il pulsante verde con un trattino per diminuire, o sulla freccia verde per le mappe adiacenti.


METAR-TAF: